createdAt,value
2023-10-11T00:00:26.515Z,5.80
2023-10-11T00:03:47.944Z,5.57
2023-10-11T00:06:42.017Z,4.63
2023-10-11T00:09:39.935Z,5.30
2023-10-11T00:12:35.039Z,4.93
2023-10-11T00:15:28.878Z,4.57
2023-10-11T00:18:31.621Z,4.70
2023-10-11T00:21:37.287Z,4.40
2023-10-11T00:24:32.499Z,5.93
2023-10-11T00:27:23.714Z,5.20
2023-10-11T00:30:15.654Z,4.63
2023-10-11T00:33:19.781Z,4.43
2023-10-11T00:36:16.796Z,4.40
2023-10-11T00:39:09.854Z,5.33
2023-10-11T00:42:11.005Z,5.70
2023-10-11T00:45:08.067Z,5.17
2023-10-11T00:48:03.761Z,4.97
2023-10-11T00:50:55.884Z,4.50
2023-10-11T00:53:50.227Z,4.87
2023-10-11T00:56:45.953Z,4.80
2023-10-11T00:59:36.114Z,5.17
2023-10-11T01:02:27.696Z,4.63
2023-10-11T01:05:26.326Z,4.20
2023-10-11T01:08:26.606Z,5.37
2023-10-11T01:11:21.541Z,4.20
2023-10-11T01:14:17.591Z,4.73
2023-10-11T01:17:08.330Z,4.43
2023-10-11T01:20:08.986Z,4.60
2023-10-11T01:23:03.149Z,5.17
2023-10-11T01:26:07.981Z,4.50
2023-10-11T01:29:07.915Z,4.83
2023-10-11T01:32:01.207Z,4.90
2023-10-11T01:35:05.738Z,5.20
2023-10-11T01:38:07.549Z,5.60
2023-10-11T01:41:00.041Z,4.93
2023-10-11T01:44:17.461Z,5.77
2023-10-11T01:47:15.228Z,4.60
2023-10-11T01:50:18.956Z,5.00
2023-10-11T01:53:19.668Z,5.10
2023-10-11T01:56:10.880Z,5.37
2023-10-11T01:59:03.348Z,4.80
2023-10-11T02:02:07.963Z,5.20
2023-10-11T02:05:01.502Z,5.00
2023-10-11T02:07:58.792Z,4.83
2023-10-11T02:10:54.508Z,4.90
2023-10-11T02:13:52.632Z,4.33
2023-10-11T02:16:46.033Z,6.33
2023-10-11T02:19:49.941Z,5.10
2023-10-11T02:22:39.021Z,4.50
2023-10-11T02:25:30.915Z,4.80
2023-10-11T02:28:23.850Z,5.17
2023-10-11T02:31:30.527Z,5.57
2023-10-11T02:34:25.399Z,5.53
2023-10-11T02:37:35.349Z,4.83
2023-10-11T02:40:32.226Z,5.33
2023-10-11T02:43:35.372Z,4.27
2023-10-11T02:46:27.708Z,4.27
2023-10-11T02:49:25.158Z,5.57
2023-10-11T02:52:23.228Z,5.20
2023-10-11T02:55:30.890Z,4.83
2023-10-11T02:58:23.475Z,5.57
2023-10-11T03:01:24.675Z,4.63
2023-10-11T03:04:20.378Z,5.13
2023-10-11T03:07:24.372Z,4.37
2023-10-11T03:10:16.899Z,6.37
2023-10-11T03:13:12.054Z,4.60
2023-10-11T03:16:03.073Z,4.50
2023-10-11T03:18:54.349Z,4.50
2023-10-11T03:25:16.449Z,4.40
2023-10-11T03:28:28.241Z,4.73
2023-10-11T03:31:23.994Z,5.43
2023-10-11T03:37:25.061Z,5.80
2023-10-11T03:40:31.840Z,4.83
2023-10-11T03:43:25.990Z,4.40
2023-10-11T03:46:24.061Z,4.50
2023-10-11T03:49:26.171Z,3.97
2023-10-11T03:52:29.127Z,4.67
2023-10-11T03:55:33.850Z,4.67
2023-10-11T03:58:35.347Z,5.07
2023-10-11T04:04:37.370Z,4.57
2023-10-11T04:07:31.373Z,5.47
2023-10-11T04:10:38.489Z,6.27
2023-10-11T04:13:30.115Z,4.50
2023-10-11T04:16:25.645Z,4.60
2023-10-11T04:19:24.457Z,5.07
2023-10-11T04:22:14.625Z,5.27
2023-10-11T04:25:14.942Z,5.53
2023-10-11T04:28:07.595Z,5.10
2023-10-11T04:31:22.974Z,4.47
2023-10-11T04:34:16.850Z,4.90
2023-10-11T04:37:19.225Z,4.97
2023-10-11T04:40:28.058Z,4.43
2023-10-11T04:43:23.309Z,5.10
2023-10-11T04:46:17.247Z,5.00
2023-10-11T04:49:23.807Z,4.93
2023-10-11T04:52:25.416Z,4.80
2023-10-11T04:55:17.602Z,5.33
2023-10-11T04:58:07.032Z,4.70
2023-10-11T05:01:06.134Z,6.10
2023-10-11T05:04:01.446Z,4.63
2023-10-11T05:06:55.933Z,4.10
2023-10-11T05:09:46.522Z,4.07
2023-10-11T05:12:44.097Z,4.47
2023-10-11T05:15:48.742Z,4.20
2023-10-11T05:18:41.527Z,3.57
2023-10-11T05:21:38.009Z,4.03
2023-10-11T05:24:46.618Z,4.33
2023-10-11T05:27:49.405Z,5.23
2023-10-11T05:30:47.154Z,4.63
2023-10-11T05:33:56.049Z,5.27
2023-10-11T05:37:17.807Z,4.20
2023-10-11T05:40:31.829Z,4.83
2023-10-11T05:43:40.240Z,4.80
2023-10-11T05:47:11.855Z,4.83
2023-10-11T05:50:22.471Z,5.00
2023-10-11T05:53:22.301Z,5.13
2023-10-11T05:56:24.084Z,4.80
2023-10-11T05:59:20.524Z,6.07
2023-10-11T06:02:15.950Z,5.03
2023-10-11T06:05:12.845Z,4.80
2023-10-11T06:08:08.974Z,4.37
2023-10-11T06:10:59.419Z,5.07
2023-10-11T06:13:54.879Z,5.37
2023-10-11T06:16:51.929Z,4.13
2023-10-11T06:19:46.575Z,5.47
2023-10-11T06:22:36.048Z,5.17
2023-10-11T06:25:48.877Z,4.90
2023-10-11T06:28:43.816Z,5.17
2023-10-11T06:31:45.844Z,4.47
2023-10-11T06:34:38.023Z,4.40
2023-10-11T06:37:42.037Z,4.80
2023-10-11T06:40:51.319Z,5.70
2023-10-11T06:43:47.501Z,4.23
2023-10-11T06:46:56.329Z,4.30
2023-10-11T06:50:02.255Z,4.50
2023-10-11T06:52:55.959Z,4.57
2023-10-11T06:55:50.347Z,5.20
2023-10-11T06:58:50.520Z,4.83
2023-10-11T07:01:52.637Z,5.10
2023-10-11T07:04:53.252Z,4.53
2023-10-11T07:07:58.632Z,5.17
2023-10-11T07:11:07.093Z,5.00
2023-10-11T07:14:09.162Z,4.43
2023-10-11T07:17:14.190Z,4.50
2023-10-11T07:20:36.435Z,5.83
2023-10-11T07:23:55.430Z,5.00
2023-10-11T07:26:56.869Z,4.90
2023-10-11T07:29:53.195Z,4.43
2023-10-11T07:32:53.909Z,5.40
2023-10-11T07:35:50.371Z,5.87
2023-10-11T07:38:56.492Z,5.23
2023-10-11T07:41:55.394Z,5.57
2023-10-11T07:44:54.373Z,5.50
2023-10-11T07:48:06.960Z,5.77
2023-10-11T07:51:30.512Z,6.17
2023-10-11T07:54:34.097Z,5.90
2023-10-11T07:57:30.036Z,5.67
2023-10-11T08:00:25.109Z,5.37
2023-10-11T08:03:24.348Z,6.33
2023-10-11T08:06:26.044Z,6.43
2023-10-11T08:09:29.408Z,5.03
2023-10-11T08:12:29.936Z,4.83
2023-10-11T08:15:41.026Z,5.07
2023-10-11T08:18:37.142Z,6.03
2023-10-11T08:21:38.546Z,5.63
2023-10-11T08:24:31.610Z,5.87
2023-10-11T08:27:29.961Z,5.77
2023-10-11T08:30:19.191Z,5.57
2023-10-11T08:33:06.136Z,5.60
2023-10-11T08:35:54.511Z,5.70
2023-10-11T08:38:40.862Z,5.83
2023-10-11T08:41:27.492Z,5.77
2023-10-11T08:44:21.683Z,5.80
2023-10-11T08:47:09.039Z,5.90
2023-10-11T08:49:55.421Z,5.80
2023-10-11T08:52:42.321Z,5.83
2023-10-11T08:55:29.117Z,5.33
2023-10-11T08:58:24.955Z,6.10
2023-10-11T09:01:11.837Z,6.40
2023-10-11T09:04:07.063Z,5.50
2023-10-11T09:06:59.041Z,5.07
2023-10-11T09:09:47.393Z,6.00
2023-10-11T09:12:44.910Z,6.23
2023-10-11T09:15:34.209Z,5.67
2023-10-11T09:18:23.506Z,5.60
2023-10-11T09:21:19.280Z,5.90
2023-10-11T09:24:24.923Z,5.83
2023-10-11T09:27:17.961Z,5.20
2023-10-11T09:30:25.450Z,5.20
2023-10-11T09:33:21.472Z,4.83
2023-10-11T09:36:09.649Z,4.70
2023-10-11T09:38:57.820Z,4.03
2023-10-11T09:41:46.863Z,4.60
2023-10-11T09:44:41.191Z,5.20
2023-10-11T09:47:32.640Z,4.33
2023-10-11T09:50:20.648Z,4.43
2023-10-11T09:53:11.115Z,4.47
2023-10-11T09:56:16.554Z,4.50
2023-10-11T09:59:23.551Z,4.83
2023-10-11T10:02:33.071Z,4.23
2023-10-11T10:05:24.451Z,5.90
2023-10-11T10:08:16.010Z,4.37
2023-10-11T10:11:05.533Z,4.23
2023-10-11T10:14:03.373Z,3.67
2023-10-11T10:17:13.308Z,4.30
2023-10-11T10:20:42.843Z,4.43
2023-10-11T10:23:31.448Z,4.03
2023-10-11T10:26:20.281Z,4.90
2023-10-11T10:29:08.508Z,3.87
2023-10-11T10:32:06.236Z,4.40
2023-10-11T10:35:20.731Z,4.13
2023-10-11T10:38:10.886Z,4.40
2023-10-11T10:41:24.143Z,4.23
2023-10-11T10:44:13.496Z,3.80
2023-10-11T10:47:01.351Z,4.40
2023-10-11T10:49:52.151Z,4.00
2023-10-11T10:52:40.834Z,3.73
2023-10-11T10:55:36.043Z,3.47
2023-10-11T10:58:26.443Z,3.50
2023-10-11T11:01:13.197Z,3.60
2023-10-11T11:04:00.002Z,3.67
2023-10-11T11:06:50.578Z,3.30
2023-10-11T11:09:37.321Z,3.13
2023-10-11T11:12:30.990Z,3.30
2023-10-11T11:15:24.047Z,2.97
2023-10-11T11:18:15.091Z,3.27
2023-10-11T11:21:21.178Z,2.63
2023-10-11T11:24:17.748Z,3.00
2023-10-11T11:27:07.904Z,3.33
2023-10-11T11:29:55.618Z,2.47
2023-10-11T11:32:48.809Z,2.80
2023-10-11T11:35:52.261Z,2.63
2023-10-11T11:38:47.186Z,3.27
2023-10-11T11:41:34.497Z,2.77
2023-10-11T11:44:22.311Z,3.60
2023-10-11T11:47:09.025Z,2.67
2023-10-11T11:50:00.298Z,2.40
2023-10-11T11:52:47.145Z,3.03
2023-10-11T11:55:36.044Z,3.43
2023-10-11T11:58:22.786Z,2.83
2023-10-11T12:01:16.779Z,2.63
2023-10-11T12:04:03.906Z,3.00
2023-10-11T12:06:50.796Z,2.77
2023-10-11T12:09:51.658Z,2.30
2023-10-11T12:12:46.041Z,3.33
2023-10-11T12:15:41.153Z,2.10
2023-10-11T12:18:34.405Z,2.40
2023-10-11T12:21:21.090Z,2.60
2023-10-11T12:24:30.620Z,3.30
2023-10-11T12:27:18.132Z,2.60
2023-10-11T12:30:10.785Z,2.77
2023-10-11T12:32:59.760Z,2.80
2023-10-11T12:35:46.737Z,2.78
2023-10-11T12:38:37.421Z,2.77
2023-10-11T12:41:24.278Z,2.60
2023-10-11T12:44:13.143Z,2.60
2023-10-11T12:47:00.265Z,2.58
2023-10-11T12:49:47.274Z,2.90
2023-10-11T12:52:34.054Z,3.05
2023-10-11T12:55:21.774Z,2.92
2023-10-11T12:58:12.683Z,2.55
2023-10-11T13:01:06.740Z,2.17
2023-10-11T13:04:07.324Z,2.55
2023-10-11T13:06:53.913Z,3.03
2023-10-11T13:09:41.518Z,2.72
2023-10-11T13:12:30.507Z,2.88
2023-10-11T13:15:22.606Z,2.50
2023-10-11T13:18:11.474Z,2.67
2023-10-11T13:20:58.271Z,2.63
2023-10-11T13:23:45.133Z,2.80
2023-10-11T13:26:34.193Z,2.65
2023-10-11T13:29:21.235Z,2.58
2023-10-11T13:32:08.685Z,2.63
2023-10-11T13:34:55.457Z,2.45
2023-10-11T13:37:47.434Z,2.67
2023-10-11T13:40:34.132Z,2.63
2023-10-11T13:43:22.698Z,2.90
2023-10-11T13:46:11.923Z,2.92
2023-10-11T13:49:10.415Z,2.65
2023-10-11T13:52:02.377Z,3.03
2023-10-11T13:54:52.569Z,2.63
2023-10-11T13:57:39.259Z,2.67
2023-10-11T14:00:54.457Z,2.50
2023-10-11T14:03:57.053Z,2.90
2023-10-11T14:06:45.054Z,2.30
2023-10-11T14:09:32.052Z,2.80
2023-10-11T14:12:19.712Z,2.55
2023-10-11T14:15:12.962Z,2.70
2023-10-11T14:18:01.305Z,2.50
2023-10-11T14:20:56.936Z,2.10
2023-10-11T14:23:46.093Z,2.85
2023-10-11T14:26:34.695Z,2.70
2023-10-11T14:29:21.091Z,2.58
2023-10-11T14:32:07.351Z,2.87
2023-10-11T14:34:53.792Z,2.80
2023-10-11T14:37:43.169Z,2.87
2023-10-11T14:40:30.235Z,3.07
2023-10-11T14:43:18.231Z,3.35
2023-10-11T14:46:08.480Z,2.63
2023-10-11T14:48:54.962Z,2.80
2023-10-11T15:14:54.089Z,2.70
2023-10-11T15:17:40.761Z,2.50
2023-10-11T15:20:27.362Z,2.37
2023-10-11T15:23:13.952Z,2.80
2023-10-11T15:26:04.442Z,2.73
2023-10-11T15:28:53.181Z,3.00
2023-10-11T15:31:39.968Z,2.90
2023-10-11T15:34:26.705Z,2.60
2023-10-11T15:37:13.521Z,3.13
2023-10-11T15:40:00.699Z,2.60
2023-10-11T15:42:48.308Z,3.20
2023-10-11T15:45:34.997Z,3.57
2023-10-11T15:48:22.454Z,3.23
2023-10-11T15:51:10.881Z,2.87
2023-10-11T15:53:57.652Z,3.30
2023-10-11T15:56:45.063Z,3.77
2023-10-11T15:59:32.073Z,2.67
2023-10-11T16:02:19.188Z,2.57
2023-10-11T16:05:08.594Z,3.00
2023-10-11T16:07:54.991Z,2.97
2023-10-11T16:10:41.221Z,2.90
2023-10-11T16:13:27.888Z,3.07
2023-10-11T16:16:18.970Z,3.27
2023-10-11T16:19:06.022Z,3.27
2023-10-11T16:21:52.690Z,2.93
2023-10-11T16:24:39.392Z,3.00
2023-10-11T16:27:25.651Z,3.30
2023-10-11T16:30:14.636Z,3.23
2023-10-11T16:33:01.390Z,3.03
2023-10-11T16:35:51.535Z,3.33
2023-10-11T16:38:39.431Z,2.90
2023-10-11T16:41:25.677Z,2.60
2023-10-11T16:44:14.489Z,3.60
2023-10-11T16:47:06.991Z,3.00
2023-10-11T16:49:54.270Z,3.30
2023-10-11T16:52:40.941Z,3.27
2023-10-11T16:55:31.543Z,2.93
2023-10-11T16:58:19.550Z,2.93
2023-10-11T17:01:07.283Z,2.80
2023-10-11T17:03:54.000Z,3.07
2023-10-11T17:06:40.948Z,4.00
2023-10-11T17:09:31.036Z,4.33
2023-10-11T17:12:17.909Z,4.27
2023-10-11T17:15:04.564Z,4.47
2023-10-11T17:17:53.566Z,3.67
2023-10-11T17:20:42.864Z,4.27
2023-10-11T17:23:29.186Z,4.63
2023-10-11T17:26:16.477Z,4.23
2023-10-11T17:29:03.778Z,4.43
2023-10-11T17:31:50.400Z,3.60
2023-10-11T17:34:38.346Z,3.50
2023-10-11T17:37:27.819Z,4.27
2023-10-11T17:40:19.112Z,4.60
2023-10-11T17:43:07.660Z,4.20
2023-10-11T17:45:54.464Z,4.33
2023-10-11T17:48:46.431Z,4.50
2023-10-11T17:51:32.877Z,4.87
2023-10-11T17:54:19.575Z,4.37
2023-10-11T17:57:07.224Z,4.30
2023-10-11T17:59:53.787Z,4.70
2023-10-11T18:02:40.246Z,4.80
2023-10-11T18:05:27.544Z,4.77
2023-10-11T18:08:14.156Z,4.80
2023-10-11T18:11:01.211Z,4.43
2023-10-11T18:13:48.672Z,4.77
2023-10-11T18:16:35.245Z,4.10
2023-10-11T18:19:21.866Z,3.83
2023-10-11T18:22:08.852Z,4.60
2023-10-11T18:24:55.536Z,4.70
2023-10-11T18:27:43.966Z,3.70
2023-10-11T18:30:31.441Z,3.60
2023-10-11T18:33:18.087Z,3.67
2023-10-11T18:36:07.460Z,3.30
2023-10-11T18:38:53.962Z,2.90
2023-10-11T18:41:41.672Z,3.23
2023-10-11T18:44:28.391Z,3.50
2023-10-11T18:47:14.656Z,3.70
2023-10-11T18:50:01.175Z,4.93
2023-10-11T18:52:48.443Z,4.07
2023-10-11T18:55:34.811Z,4.80
2023-10-11T18:58:21.620Z,3.70
2023-10-11T19:01:08.078Z,4.10
2023-10-11T19:03:54.444Z,3.83
2023-10-11T19:06:41.564Z,4.20
2023-10-11T19:09:28.289Z,3.67
2023-10-11T19:12:15.881Z,3.87
2023-10-11T19:15:06.214Z,3.90
2023-10-11T19:17:52.688Z,4.20
2023-10-11T19:20:39.065Z,3.63
2023-10-11T19:23:25.511Z,3.73
2023-10-11T19:26:11.913Z,4.47
2023-10-11T19:29:00.226Z,3.70
2023-10-11T19:31:48.363Z,3.60
2023-10-11T19:34:35.086Z,3.57
2023-10-11T19:37:21.756Z,3.63
2023-10-11T19:40:10.402Z,3.73
2023-10-11T19:42:57.070Z,3.53
2023-10-11T19:45:48.483Z,4.83
2023-10-11T19:48:36.821Z,4.10
2023-10-11T19:51:23.452Z,3.93
2023-10-11T19:54:09.826Z,3.53
2023-10-11T19:56:56.134Z,3.50
2023-10-11T19:59:43.428Z,5.17
2023-10-11T20:02:30.254Z,3.97
2023-10-11T20:05:19.202Z,4.17
2023-10-11T20:08:06.003Z,3.77
2023-10-11T20:11:02.012Z,4.20
2023-10-11T20:13:48.983Z,4.10
2023-10-11T20:16:35.523Z,3.57
2023-10-11T20:19:24.043Z,4.00
2023-10-11T20:22:13.819Z,3.53
2023-10-11T20:25:00.869Z,3.63
2023-10-11T20:27:50.928Z,4.00
2023-10-11T20:30:41.612Z,4.30
2023-10-11T20:33:29.373Z,4.23
2023-10-11T20:36:16.359Z,4.60
2023-10-11T20:39:09.761Z,4.60
2023-10-11T20:41:57.129Z,3.80
2023-10-11T20:44:44.502Z,4.80
2023-10-11T20:47:30.920Z,3.50
2023-10-11T20:50:18.811Z,3.23
2023-10-11T20:53:05.027Z,3.90
2023-10-11T20:55:52.409Z,3.60
2023-10-11T20:58:45.824Z,3.53
2023-10-11T21:01:37.559Z,3.67
2023-10-11T21:04:24.419Z,3.80
2023-10-11T21:07:12.892Z,4.20
2023-10-11T21:09:59.274Z,4.00
2023-10-11T21:12:48.411Z,4.30
2023-10-11T21:15:34.656Z,3.97
2023-10-11T21:18:21.726Z,4.07
2023-10-11T21:21:21.933Z,4.37
2023-10-11T21:24:08.544Z,4.13
2023-10-11T21:26:54.821Z,4.40
2023-10-11T21:29:41.627Z,4.47
2023-10-11T21:32:28.399Z,4.53
2023-10-11T21:35:24.854Z,4.40
2023-10-11T21:38:12.006Z,3.90
2023-10-11T21:40:58.804Z,4.23
2023-10-11T21:43:45.413Z,4.40
2023-10-11T21:46:31.930Z,4.67
2023-10-11T21:49:18.193Z,4.00
2023-10-11T21:52:05.166Z,3.87
2023-10-11T21:54:51.813Z,4.20
2023-10-11T21:57:38.431Z,3.87
2023-10-11T22:00:44.768Z,3.80
2023-10-11T22:03:32.545Z,4.20
2023-10-11T22:06:19.224Z,5.93
2023-10-11T22:09:05.819Z,4.53
2023-10-11T22:11:52.688Z,4.20
2023-10-11T22:14:39.389Z,3.47
2023-10-11T22:17:27.291Z,4.17
2023-10-11T22:20:17.601Z,3.87
2023-10-11T22:23:04.066Z,4.23
2023-10-11T22:25:51.115Z,3.63
2023-10-11T22:28:42.026Z,3.30
2023-10-11T22:31:28.870Z,3.43
2023-10-11T22:34:15.600Z,3.70
2023-10-11T22:37:01.999Z,3.60
2023-10-11T22:39:48.546Z,3.80
2023-10-11T22:42:34.862Z,4.63
2023-10-11T22:45:28.744Z,3.50
2023-10-11T22:48:16.572Z,3.57
2023-10-11T22:51:03.983Z,4.17
2023-10-11T22:54:01.034Z,4.03
2023-10-11T22:56:48.160Z,3.50
2023-10-11T22:59:34.768Z,3.87
2023-10-11T23:02:26.179Z,3.80
2023-10-11T23:05:12.486Z,4.30
2023-10-11T23:07:59.053Z,3.47
2023-10-11T23:10:48.697Z,4.13
2023-10-11T23:13:37.298Z,4.03
2023-10-11T23:16:28.606Z,3.40
2023-10-11T23:19:21.287Z,3.63
2023-10-11T23:22:22.312Z,4.10
2023-10-11T23:25:09.357Z,3.70
2023-10-11T23:28:05.811Z,3.90
2023-10-11T23:30:52.838Z,3.90
2023-10-11T23:33:50.848Z,3.97
2023-10-11T23:36:39.716Z,4.47
2023-10-11T23:39:35.955Z,4.20
2023-10-11T23:42:23.337Z,3.73
2023-10-11T23:45:16.658Z,3.60
2023-10-11T23:48:10.230Z,4.03
2023-10-11T23:51:04.974Z,4.20
2023-10-11T23:53:51.673Z,3.63
2023-10-11T23:56:45.456Z,3.57
2023-10-11T23:59:36.166Z,3.43
